createdAt,value
2019-02-28T00:01:15.416Z,2.77
2019-02-28T00:03:45.510Z,2.47
2019-02-28T00:06:15.247Z,3.37
2019-02-28T00:08:44.899Z,3.23
2019-02-28T00:11:14.562Z,3.15
2019-02-28T00:13:44.218Z,3.02
2019-02-28T00:16:15.109Z,3.67
2019-02-28T00:18:49.653Z,3.10
2019-02-28T00:21:16.258Z,3.42
2019-02-28T00:23:46.247Z,3.57
2019-02-28T00:26:15.918Z,3.27
2019-02-28T00:28:45.567Z,3.45
2019-02-28T00:31:15.454Z,2.90
2019-02-28T00:33:45.417Z,2.98
2019-02-28T00:36:16.329Z,3.47
2019-02-28T00:38:46.531Z,2.80
2019-02-28T00:41:16.732Z,2.93
2019-02-28T00:43:46.883Z,3.50
2019-02-28T00:46:16.537Z,3.10
2019-02-28T00:48:46.207Z,3.60
2019-02-28T00:51:15.869Z,2.93
2019-02-28T00:53:45.545Z,3.00
2019-02-28T00:56:17.587Z,2.77
2019-02-28T00:58:47.175Z,3.07
2019-02-28T01:01:16.957Z,2.97
2019-02-28T01:03:46.831Z,3.27
2019-02-28T01:06:16.505Z,3.23
2019-02-28T01:08:46.166Z,2.85
2019-02-28T01:11:15.897Z,3.43
2019-02-28T01:13:45.545Z,3.47
2019-02-28T01:16:16.062Z,3.70
2019-02-28T01:18:47.515Z,2.92
2019-02-28T01:21:17.172Z,3.10
2019-02-28T01:23:47.065Z,2.83
2019-02-28T01:26:16.754Z,3.40
2019-02-28T01:28:46.397Z,2.92
2019-02-28T01:31:16.056Z,2.98
2019-02-28T01:33:46.178Z,2.73
2019-02-28T01:36:16.336Z,2.67
2019-02-28T01:38:46.069Z,3.37
2019-02-28T01:41:15.771Z,2.83
2019-02-28T01:43:45.453Z,3.00
2019-02-28T01:46:17.268Z,2.70
2019-02-28T01:48:46.457Z,2.80
2019-02-28T01:51:16.649Z,2.90
2019-02-28T01:53:46.310Z,2.90
2019-02-28T01:56:16.711Z,2.80
2019-02-28T01:58:47.670Z,3.02
2019-02-28T02:01:19.682Z,3.20
2019-02-28T02:03:49.349Z,2.77
2019-02-28T02:06:18.995Z,2.80
2019-02-28T02:08:49.061Z,2.77
2019-02-28T02:11:19.079Z,2.87
2019-02-28T02:13:48.754Z,3.27
2019-02-28T02:16:18.476Z,3.03
2019-02-28T02:18:48.243Z,3.30
2019-02-28T02:21:17.893Z,2.90
2019-02-28T02:23:49.667Z,3.07
2019-02-28T02:26:19.001Z,3.00
2019-02-28T02:28:48.681Z,2.67
2019-02-28T02:31:18.318Z,2.80
2019-02-28T02:33:52.440Z,2.90
2019-02-28T02:36:19.376Z,3.20
2019-02-28T02:38:49.031Z,3.00
2019-02-28T02:41:18.769Z,3.10
2019-02-28T02:43:48.414Z,2.70
2019-02-28T02:46:20.169Z,3.73
2019-02-28T02:48:49.456Z,2.80
2019-02-28T02:51:19.106Z,3.30
2019-02-28T02:53:48.979Z,3.70
2019-02-28T02:56:18.628Z,2.97
2019-02-28T02:58:49.302Z,3.43
2019-02-28T03:01:23.039Z,2.80
2019-02-28T03:03:51.549Z,3.30
2019-02-28T03:06:21.200Z,3.43
2019-02-28T03:08:51.186Z,3.37
2019-02-28T03:11:24.856Z,2.97
2019-02-28T03:13:52.585Z,3.70
2019-02-28T03:16:23.356Z,3.80
2019-02-28T03:18:56.482Z,3.63
2019-02-28T03:21:24.346Z,3.60
2019-02-28T03:23:54.008Z,3.62
2019-02-28T03:26:23.765Z,4.30
2019-02-28T03:28:53.456Z,3.43
2019-02-28T03:31:23.106Z,3.25
2019-02-28T03:33:52.796Z,3.63
2019-02-28T03:36:22.468Z,4.30
2019-02-28T03:38:52.128Z,3.93
2019-02-28T03:41:21.802Z,4.40
2019-02-28T03:43:51.477Z,4.00
2019-02-28T03:46:21.185Z,4.00
2019-02-28T03:48:50.963Z,4.83
2019-02-28T03:51:20.653Z,4.33
2019-02-28T03:53:55.577Z,4.37
2019-02-28T03:56:22.189Z,4.27
2019-02-28T03:58:51.863Z,4.27
2019-02-28T04:01:22.503Z,4.30
2019-02-28T04:03:52.948Z,4.17
2019-02-28T04:06:22.613Z,4.90
2019-02-28T04:08:52.293Z,4.93
2019-02-28T04:11:21.994Z,4.47
2019-02-28T04:13:52.582Z,4.47
2019-02-28T04:16:23.024Z,4.10
2019-02-28T04:18:52.693Z,4.55
2019-02-28T04:21:22.512Z,4.10
2019-02-28T04:23:52.202Z,4.90
2019-02-28T04:26:21.884Z,4.67
2019-02-28T04:28:54.672Z,4.80
2019-02-28T04:31:23.162Z,4.72
2019-02-28T04:33:52.857Z,4.83
2019-02-28T04:36:22.522Z,5.50
2019-02-28T04:38:52.536Z,4.83
2019-02-28T04:41:22.150Z,5.13
2019-02-28T04:43:51.827Z,5.57
2019-02-28T04:46:21.590Z,4.57
2019-02-28T04:48:51.340Z,4.72
2019-02-28T04:51:21.053Z,4.37
2019-02-28T04:53:53.005Z,4.90
2019-02-28T04:56:22.150Z,4.63
2019-02-28T04:58:51.818Z,5.33
2019-02-28T05:01:21.763Z,4.78
2019-02-28T05:03:52.770Z,4.73
2019-02-28T05:06:22.503Z,5.77
2019-02-28T05:08:52.270Z,4.57
2019-02-28T05:11:22.049Z,5.00
2019-02-28T05:13:51.724Z,5.00
2019-02-28T05:16:21.383Z,2.10
2019-02-28T05:18:51.301Z,5.10
2019-02-28T05:21:20.972Z,4.90
2019-02-28T05:23:50.881Z,2.42
2019-02-28T05:26:20.547Z,4.20
2019-02-28T05:28:51.980Z,4.23
2019-02-28T05:31:24.124Z,2.77
2019-02-28T05:33:53.631Z,3.80
2019-02-28T05:36:23.291Z,5.37
2019-02-28T05:38:53.598Z,3.13
2019-02-28T05:41:24.632Z,4.07
2019-02-28T05:43:55.066Z,4.53
2019-02-28T05:46:24.721Z,3.80
2019-02-28T05:48:54.397Z,5.00
2019-02-28T05:51:24.869Z,5.25
2019-02-28T05:53:55.326Z,5.20
2019-02-28T05:56:25.330Z,2.03
2019-02-28T05:58:55.275Z,4.47
2019-02-28T06:01:24.944Z,5.30
2019-02-28T06:03:54.611Z,4.65
2019-02-28T06:06:24.884Z,5.17
2019-02-28T06:08:54.564Z,5.08
2019-02-28T06:11:24.219Z,5.60
2019-02-28T06:13:53.904Z,5.00
2019-02-28T06:16:23.574Z,5.35
2019-02-28T06:18:53.534Z,5.60
2019-02-28T06:21:24.295Z,6.03
2019-02-28T06:23:54.314Z,4.47
2019-02-28T06:26:24.605Z,5.47
2019-02-28T06:28:54.298Z,5.70
2019-02-28T06:31:23.971Z,5.58
2019-02-28T06:33:54.680Z,5.12
2019-02-28T06:36:25.704Z,5.70
2019-02-28T06:38:55.928Z,6.03
2019-02-28T06:41:26.007Z,3.65
2019-02-28T06:43:55.684Z,6.37
2019-02-28T06:46:26.359Z,6.57
2019-02-28T06:49:01.134Z,3.73
2019-02-28T06:51:28.454Z,7.15
2019-02-28T06:53:58.432Z,6.40
2019-02-28T06:56:28.130Z,8.17
2019-02-28T06:58:57.789Z,6.63
2019-02-28T07:01:29.530Z,5.80
2019-02-28T07:03:58.856Z,6.65
2019-02-28T07:06:28.515Z,7.63
2019-02-28T07:09:02.165Z,4.93
2019-02-28T07:11:29.596Z,8.73
2019-02-28T07:13:59.567Z,8.73
2019-02-28T07:16:30.752Z,10.73
2019-02-28T07:19:01.039Z,6.33
2019-02-28T07:21:30.720Z,8.50
2019-02-28T07:24:02.387Z,7.28
2019-02-28T07:26:31.909Z,11.00
2019-02-28T07:29:02.066Z,11.43
2019-02-28T07:31:31.818Z,7.67
2019-02-28T07:34:01.779Z,11.73
2019-02-28T07:36:31.472Z,11.97
2019-02-28T07:39:04.487Z,6.03
2019-02-28T07:41:34.501Z,12.43
2019-02-28T07:44:04.470Z,11.08
2019-02-28T07:46:34.238Z,6.50
2019-02-28T07:49:03.942Z,4.07
2019-02-28T07:51:33.720Z,11.45
2019-02-28T07:54:03.392Z,13.38
2019-02-28T07:56:33.083Z,14.63
2019-02-28T07:59:05.341Z,14.73
2019-02-28T08:01:34.148Z,11.00
2019-02-28T08:04:03.969Z,7.92
2019-02-28T08:06:36.348Z,11.53
2019-02-28T08:09:10.940Z,5.13
2019-02-28T08:11:40.967Z,14.20
2019-02-28T08:14:12.130Z,9.50
2019-02-28T08:16:43.091Z,13.70
2019-02-28T08:19:13.245Z,14.77
2019-02-28T08:21:46.962Z,7.70
2019-02-28T08:24:14.680Z,13.60
2019-02-28T08:26:44.383Z,13.53
2019-02-28T08:29:14.399Z,4.62
2019-02-28T08:31:44.664Z,15.33
2019-02-28T08:34:14.340Z,15.77
2019-02-28T08:36:47.041Z,7.47
2019-02-28T08:39:17.548Z,6.00
2019-02-28T08:41:49.548Z,17.77
2019-02-28T08:44:23.872Z,13.28
2019-02-28T08:46:52.064Z,16.40
2019-02-28T08:49:22.018Z,14.93
2019-02-28T08:51:51.807Z,7.43
2019-02-28T08:54:26.300Z,10.60
2019-02-28T08:56:53.034Z,15.23
2019-02-28T08:59:23.028Z,15.67
2019-02-28T09:01:53.215Z,17.52
2019-02-28T09:04:23.555Z,7.63
2019-02-28T09:06:53.398Z,7.87
2019-02-28T09:09:23.092Z,17.48
2019-02-28T09:11:57.887Z,14.00
2019-02-28T09:14:24.271Z,19.20
2019-02-28T09:16:54.007Z,16.03
2019-02-28T09:19:23.667Z,12.70
2019-02-28T09:21:53.776Z,18.47
2019-02-28T09:24:23.613Z,14.63
2019-02-28T09:26:53.575Z,17.67
2019-02-28T09:29:23.320Z,6.73
2019-02-28T09:31:53.072Z,11.83
2019-02-28T09:34:22.775Z,14.63
2019-02-28T09:36:56.611Z,11.48
2019-02-28T09:39:23.887Z,6.37
2019-02-28T09:41:53.693Z,13.35
2019-02-28T09:44:23.418Z,16.03
2019-02-28T09:46:53.132Z,16.60
2019-02-28T09:49:22.802Z,7.93
2019-02-28T09:51:52.833Z,15.70
2019-02-28T09:54:24.362Z,12.73
2019-02-28T09:56:54.208Z,11.12
2019-02-28T09:59:23.881Z,14.17
2019-02-28T10:02:01.114Z,10.33
2019-02-28T10:04:27.414Z,14.93
2019-02-28T10:06:56.940Z,16.57
2019-02-28T10:09:26.668Z,15.37
2019-02-28T10:11:56.360Z,12.07
2019-02-28T10:14:28.991Z,6.30
2019-02-28T10:16:59.005Z,7.63
2019-02-28T10:19:28.912Z,6.80
2019-02-28T10:21:58.590Z,15.65
2019-02-28T10:24:28.533Z,11.60
2019-02-28T10:26:59.741Z,15.68
2019-02-28T10:29:29.451Z,8.20
2019-02-28T10:31:59.169Z,6.95
2019-02-28T10:34:29.967Z,14.87
2019-02-28T10:37:00.274Z,12.57
2019-02-28T10:39:29.985Z,15.77
2019-02-28T10:42:01.548Z,15.25
2019-02-28T10:44:31.620Z,12.13
2019-02-28T10:47:01.391Z,16.87
2019-02-28T10:49:31.264Z,16.50
2019-02-28T10:52:01.144Z,13.47
2019-02-28T10:54:30.861Z,17.80
2019-02-28T10:57:03.040Z,17.73
2019-02-28T10:59:32.214Z,18.50
2019-02-28T11:02:02.004Z,7.92
2019-02-28T11:04:31.685Z,11.07
2019-02-28T11:07:02.265Z,6.63
2019-02-28T11:09:32.821Z,16.20
2019-02-28T11:12:02.847Z,11.78
2019-02-28T11:14:35.459Z,13.58
2019-02-28T11:17:04.076Z,17.17
2019-02-28T11:19:33.922Z,11.23
2019-02-28T11:22:04.948Z,16.80
2019-02-28T11:24:35.105Z,10.78
2019-02-28T11:27:07.283Z,18.42
2019-02-28T11:29:37.026Z,17.87
2019-02-28T11:32:06.971Z,16.50
2019-02-28T11:34:36.675Z,16.70
2019-02-28T11:37:08.891Z,14.00
2019-02-28T11:39:39.534Z,13.70
2019-02-28T11:42:09.845Z,16.40
2019-02-28T11:44:39.648Z,16.73
2019-02-28T11:47:11.156Z,14.60
2019-02-28T11:49:42.101Z,15.38
2019-02-28T11:52:11.866Z,16.83
2019-02-28T11:54:45.174Z,17.60
2019-02-28T11:57:14.444Z,15.00
2019-02-28T11:59:44.290Z,16.13
2019-02-28T12:02:14.062Z,16.40
2019-02-28T12:04:43.737Z,16.43
2019-02-28T12:07:13.744Z,15.63
2019-02-28T12:09:43.423Z,16.93
2019-02-28T12:12:13.262Z,17.10
2019-02-28T12:14:42.958Z,17.15
2019-02-28T12:17:12.654Z,10.37
2019-02-28T12:19:43.924Z,6.20
2019-02-28T12:22:13.944Z,12.73
2019-02-28T12:24:43.713Z,17.75
2019-02-28T12:27:13.669Z,17.83
2019-02-28T12:29:45.655Z,12.60
2019-02-28T12:32:15.344Z,9.78
2019-02-28T12:34:45.026Z,16.93
2019-02-28T12:37:14.794Z,16.27
2019-02-28T12:39:44.560Z,19.43
2019-02-28T12:42:14.272Z,17.70
2019-02-28T12:44:46.247Z,15.55
2019-02-28T12:47:15.340Z,16.70
2019-02-28T12:49:45.450Z,14.73
2019-02-28T12:52:15.560Z,16.87
2019-02-28T12:54:45.456Z,9.07
2019-02-28T12:57:15.493Z,16.55
2019-02-28T12:59:46.110Z,17.27
2019-02-28T13:02:16.658Z,17.43
2019-02-28T13:04:46.675Z,12.10
2019-02-28T13:07:16.610Z,16.60
2019-02-28T13:09:48.259Z,14.23
2019-02-28T13:12:17.877Z,19.07
2019-02-28T13:14:47.965Z,15.67
2019-02-28T13:17:17.910Z,17.87
2019-02-28T13:19:47.669Z,19.13
2019-02-28T13:22:18.815Z,17.85
2019-02-28T13:24:48.935Z,16.10
2019-02-28T13:27:18.642Z,19.57
2019-02-28T13:29:48.319Z,19.95
2019-02-28T13:32:18.008Z,18.47
2019-02-28T13:34:47.760Z,19.90
2019-02-28T13:37:17.442Z,18.93
2019-02-28T13:39:47.403Z,19.80
2019-02-28T13:42:17.118Z,7.43
2019-02-28T13:44:46.865Z,21.23
2019-02-28T13:47:16.935Z,19.05
2019-02-28T13:49:49.799Z,20.23
2019-02-28T13:52:20.298Z,21.43
2019-02-28T13:54:50.006Z,23.10
2019-02-28T13:57:19.768Z,21.77
2019-02-28T13:59:49.448Z,19.27
2019-02-28T14:02:19.198Z,25.27
2019-02-28T14:04:48.908Z,23.30
2019-02-28T14:07:18.923Z,23.38
2019-02-28T14:09:48.785Z,21.65
2019-02-28T14:12:20.763Z,22.47
2019-02-28T14:14:50.001Z,16.83
2019-02-28T14:17:19.781Z,21.43
2019-02-28T14:19:52.701Z,19.13
2019-02-28T14:22:21.132Z,22.83
2019-02-28T14:24:50.798Z,22.60
2019-02-28T14:27:21.592Z,24.87
2019-02-28T14:29:51.972Z,23.43
2019-02-28T14:32:21.646Z,17.42
2019-02-28T14:34:51.629Z,21.00
2019-02-28T14:37:21.510Z,17.02
2019-02-28T14:39:51.577Z,20.37
2019-02-28T14:42:22.334Z,18.32
2019-02-28T14:44:52.120Z,22.17
2019-02-28T14:47:24.894Z,20.50
2019-02-28T14:49:55.694Z,20.52
2019-02-28T14:52:25.962Z,22.57
2019-02-28T14:54:57.083Z,19.00
2019-02-28T14:57:27.440Z,12.53
2019-02-28T14:59:57.126Z,20.32
2019-02-28T15:02:28.768Z,24.13
2019-02-28T15:04:58.597Z,22.47
2019-02-28T15:07:28.270Z,12.33
2019-02-28T15:09:58.909Z,22.87
2019-02-28T15:12:30.110Z,23.40
2019-02-28T15:14:59.817Z,22.20
2019-02-28T15:17:29.492Z,22.53
2019-02-28T15:19:59.193Z,19.00
2019-02-28T15:22:28.906Z,19.77
2019-02-28T15:24:58.837Z,23.95
2019-02-28T15:27:29.044Z,23.80
2019-02-28T15:29:59.646Z,22.30
2019-02-28T15:32:29.432Z,21.93
2019-02-28T15:35:01.440Z,23.50
2019-02-28T15:37:33.699Z,22.47
2019-02-28T15:40:02.577Z,22.73
2019-02-28T15:42:32.430Z,23.17
2019-02-28T15:45:04.129Z,22.97
2019-02-28T15:47:34.194Z,23.15
2019-02-28T15:50:04.663Z,23.00
2019-02-28T15:52:36.652Z,23.60
2019-02-28T15:55:06.948Z,24.52
2019-02-28T15:57:37.128Z,24.20
2019-02-28T16:00:09.244Z,22.27
2019-02-28T16:02:42.165Z,23.10
2019-02-28T16:05:10.755Z,21.37
2019-02-28T16:07:40.613Z,23.73
2019-02-28T16:10:12.532Z,23.53
2019-02-28T16:12:42.855Z,24.70
2019-02-28T16:15:14.201Z,21.07
2019-02-28T16:17:44.236Z,22.77
2019-02-28T16:20:14.360Z,22.65
2019-02-28T16:22:45.168Z,21.62
2019-02-28T16:25:18.025Z,20.37
2019-02-28T16:27:48.168Z,22.83
2019-02-28T16:30:18.552Z,22.37
2019-02-28T16:32:49.087Z,21.77
2019-02-28T16:35:20.232Z,17.55
2019-02-28T16:37:50.572Z,23.15
2019-02-28T16:40:25.961Z,23.65
2019-02-28T16:42:52.282Z,22.00
2019-02-28T16:45:42.499Z,22.17
2019-02-28T16:48:12.474Z,22.93
2019-02-28T16:50:42.269Z,23.27
2019-02-28T16:53:16.186Z,20.87
2019-02-28T16:55:43.577Z,22.58
2019-02-28T16:58:13.279Z,22.35
2019-02-28T17:00:46.129Z,22.57
2019-02-28T17:03:15.935Z,23.20
2019-02-28T17:05:45.812Z,22.30
2019-02-28T17:08:18.653Z,23.10
2019-02-28T17:10:47.458Z,23.25
2019-02-28T17:13:22.560Z,23.07
2019-02-28T17:16:17.249Z,24.13
2019-02-28T17:18:47.161Z,26.27
2019-02-28T17:21:18.084Z,26.80
2019-02-28T17:23:47.831Z,27.40
2019-02-28T17:26:19.184Z,28.40
2019-02-28T17:28:56.608Z,25.03
2019-02-28T17:31:35.508Z,24.90
2019-02-28T17:34:05.550Z,26.65
2019-02-28T17:36:35.702Z,25.03
2019-02-28T17:39:07.302Z,25.60
2019-02-28T17:41:38.663Z,25.10
2019-02-28T17:44:48.537Z,27.07
2019-02-28T17:47:55.580Z,24.27
2019-02-28T17:50:57.260Z,24.75
2019-02-28T17:53:45.835Z,24.43
2019-02-28T17:56:44.435Z,26.17
2019-02-28T17:59:49.214Z,26.10
2019-02-28T18:02:56.146Z,24.93
2019-02-28T18:06:18.128Z,26.60
2019-02-28T18:09:28.435Z,26.97
2019-02-28T18:12:29.332Z,26.87
2019-02-28T18:15:17.212Z,27.47
2019-02-28T18:18:21.436Z,28.60
2019-02-28T18:21:28.944Z,28.20
2019-02-28T18:24:09.885Z,27.82
2019-02-28T18:26:57.627Z,28.38
2019-02-28T18:30:09.092Z,28.60
2019-02-28T18:32:38.203Z,29.18
2019-02-28T18:35:08.257Z,28.90
2019-02-28T18:37:38.084Z,28.42
2019-02-28T18:40:08.276Z,29.93
2019-02-28T18:42:38.790Z,28.95
2019-02-28T18:45:09.206Z,29.73
2019-02-28T18:47:40.800Z,28.57
2019-02-28T18:50:10.619Z,28.47
2019-02-28T18:52:40.396Z,29.27
2019-02-28T18:55:10.236Z,30.97
2019-02-28T18:57:40.257Z,28.47
2019-02-28T19:00:13.009Z,29.93
2019-02-28T19:02:43.329Z,28.60
2019-02-28T19:05:13.007Z,30.30
2019-02-28T19:07:43.769Z,30.30
2019-02-28T19:10:13.606Z,30.53
2019-02-28T19:12:43.581Z,30.27
2019-02-28T19:15:13.585Z,30.30
2019-02-28T19:17:44.988Z,31.30
2019-02-28T19:20:14.941Z,30.77
2019-02-28T19:22:44.603Z,30.87
2019-02-28T19:25:14.546Z,28.40
2019-02-28T19:27:44.286Z,29.17
2019-02-28T19:30:14.071Z,30.93
2019-02-28T19:32:43.915Z,29.17
2019-02-28T19:35:13.783Z,29.63
2019-02-28T19:37:43.789Z,31.03
2019-02-28T19:40:14.155Z,31.20
2019-02-28T19:42:43.942Z,31.43
2019-02-28T19:45:14.228Z,31.40
2019-02-28T19:47:44.324Z,30.30
2019-02-28T19:50:14.028Z,30.40
2019-02-28T19:52:43.763Z,29.87
2019-02-28T19:55:13.905Z,28.98
2019-02-28T19:57:43.974Z,30.80
2019-02-28T20:00:15.496Z,29.37
2019-02-28T20:02:45.509Z,30.20
2019-02-28T20:05:15.334Z,29.27
2019-02-28T20:07:45.105Z,31.13
2019-02-28T20:10:16.146Z,31.50
2019-02-28T20:12:46.811Z,30.88
2019-02-28T20:15:17.050Z,30.25
2019-02-28T20:17:46.741Z,29.60
2019-02-28T20:20:17.700Z,30.12
2019-02-28T20:22:47.936Z,29.90
2019-02-28T20:25:17.740Z,28.93
2019-02-28T20:27:47.492Z,27.50
2019-02-28T20:30:17.565Z,30.40
2019-02-28T20:32:47.572Z,28.50
2019-02-28T20:35:26.248Z,28.57
2019-02-28T20:37:49.557Z,26.68
2019-02-28T20:40:19.305Z,27.23
2019-02-28T20:42:48.986Z,29.27
2019-02-28T20:45:18.803Z,28.52
2019-02-28T20:47:48.915Z,28.33
2019-02-28T20:50:27.907Z,27.70
2019-02-28T20:52:58.880Z,28.02
2019-02-28T20:55:28.852Z,27.32
2019-02-28T20:57:59.202Z,28.10
2019-02-28T21:00:28.890Z,28.75
2019-02-28T21:02:58.749Z,28.37
2019-02-28T21:05:28.857Z,30.37
2019-02-28T21:07:58.857Z,26.63
2019-02-28T21:10:28.825Z,29.47
2019-02-28T21:12:59.200Z,29.87
2019-02-28T21:15:29.098Z,26.80
2019-02-28T21:17:58.776Z,27.53
2019-02-28T21:20:28.612Z,28.65
2019-02-28T21:22:58.643Z,27.43
2019-02-28T21:25:28.503Z,28.97
2019-02-28T21:27:58.262Z,27.13
2019-02-28T21:30:28.255Z,28.77
2019-02-28T21:32:58.199Z,29.37
2019-02-28T21:35:28.233Z,28.57
2019-02-28T21:37:58.251Z,28.67
2019-02-28T21:40:28.167Z,28.57
2019-02-28T21:42:57.995Z,29.95
2019-02-28T21:45:27.852Z,29.63
2019-02-28T21:47:57.606Z,29.90
2019-02-28T21:50:27.331Z,29.70
2019-02-28T21:52:57.222Z,33.13
2019-02-28T21:55:27.253Z,31.97
2019-02-28T21:57:56.957Z,30.63
2019-02-28T22:00:26.884Z,32.10
2019-02-28T22:02:56.641Z,30.70
2019-02-28T22:05:26.394Z,32.87
2019-02-28T22:07:56.100Z,31.10
2019-02-28T22:10:25.799Z,31.05
2019-02-28T22:12:55.475Z,31.00
2019-02-28T22:15:25.403Z,30.30
2019-02-28T22:17:55.319Z,30.63
2019-02-28T22:20:24.971Z,32.83
2019-02-28T22:22:54.644Z,31.62
2019-02-28T22:25:24.303Z,31.17
2019-02-28T22:27:54.092Z,32.33
2019-02-28T22:30:42.879Z,32.40
2019-02-28T22:33:22.776Z,30.40
2019-02-28T22:35:55.059Z,32.10
2019-02-28T22:38:24.851Z,32.37
2019-02-28T22:40:54.526Z,34.37
2019-02-28T22:43:24.202Z,35.68
2019-02-28T22:45:53.953Z,34.43
2019-02-28T22:48:23.625Z,33.30
2019-02-28T22:50:53.418Z,34.37
2019-02-28T22:53:23.102Z,34.33
2019-02-28T22:55:52.971Z,33.03
2019-02-28T22:58:22.655Z,34.15
2019-02-28T23:01:20.471Z,34.93
2019-02-28T23:03:50.218Z,33.95
2019-02-28T23:06:20.783Z,30.05
2019-02-28T23:08:50.557Z,35.33
2019-02-28T23:11:20.223Z,33.50
2019-02-28T23:13:50.244Z,34.08
2019-02-28T23:16:19.911Z,33.50
2019-02-28T23:18:49.874Z,33.83
2019-02-28T23:21:19.558Z,33.77
2019-02-28T23:23:49.234Z,33.50
2019-02-28T23:26:24.952Z,32.37
2019-02-28T23:29:02.114Z,34.78
2019-02-28T23:32:09.134Z,35.50
2019-02-28T23:34:41.465Z,34.43
2019-02-28T23:37:11.479Z,33.60
2019-02-28T23:39:42.642Z,34.70
2019-02-28T23:42:13.044Z,34.80
2019-02-28T23:44:42.812Z,35.97
2019-02-28T23:47:12.953Z,38.33
2019-02-28T23:49:42.884Z,36.25
2019-02-28T23:52:12.544Z,38.10
2019-02-28T23:54:42.295Z,41.27
2019-02-28T23:57:11.966Z,41.80
2019-02-28T23:59:41.685Z,39.60
